Time;durP1;ratioP1;P1;durP2;ratioP2;P2;SDS_P1;SDS_P2;PMS_P1;PMS_P2;Temp;Humidity;BMP_temperature;BMP_pressure;BME280_temperature;BME280_humidity;BME280_pressure;Samples;Min_cycle;Max_cycle;Signal;HPM_P1;HPM_P2
2021/10/01 00:01:17;;;;;;;5.05;3.17;;;7.80;99.90;;;;;;4312862;32;20101;-65
2021/10/01 00:03:43;;;;;;;4.57;2.95;;;7.70;99.90;;;;;;4312552;32;20090;-64
2021/10/01 00:06:09;;;;;;;4.50;2.70;;;7.70;99.90;;;;;;4349561;32;20075;-65
2021/10/01 00:08:36;;;;;;;5.30;2.80;;;7.70;99.90;;;;;;4349120;32;20078;-64
2021/10/01 00:11:02;;;;;;;4.72;3.10;;;7.60;99.90;;;;;;4349225;32;20460;-64
2021/10/01 00:13:29;;;;;;;4.87;3.08;;;7.50;99.90;;;;;;4312625;32;20071;-64
2021/10/01 00:15:55;;;;;;;3.42;2.83;;;7.60;99.90;;;;;;4336477;32;20074;-65
2021/10/01 00:18:21;;;;;;;3.92;2.85;;;7.50;99.90;;;;;;4363254;32;20084;-64
2021/10/01 00:20:48;;;;;;;5.70;3.10;;;7.50;99.90;;;;;;4325361;32;20074;-63
2021/10/01 00:23:14;;;;;;;4.07;2.80;;;7.50;99.90;;;;;;4324641;32;20081;-65
2021/10/01 00:25:41;;;;;;;6.18;3.20;;;7.40;99.90;;;;;;4336556;32;20078;-64
2021/10/01 00:28:07;;;;;;;5.07;2.70;;;7.40;99.90;;;;;;4336605;32;20075;-64
2021/10/01 00:30:33;;;;;;;4.80;2.70;;;7.40;99.90;;;;;;4362790;32;20151;-63
2021/10/01 00:32:59;;;;;;;4.40;2.80;;;7.40;99.90;;;;;;4352370;32;20082;-65
2021/10/01 00:35:25;;;;;;;4.53;3.12;;;7.40;99.90;;;;;;4349137;32;20075;-64
2021/10/01 00:37:52;;;;;;;4.03;2.95;;;7.40;99.90;;;;;;4324156;32;20079;-65
2021/10/01 00:40:19;;;;;;;5.72;2.92;;;7.30;99.90;;;;;;4348874;32;20078;-64
2021/10/01 00:42:45;;;;;;;3.65;2.70;;;7.20;99.90;;;;;;4337088;32;20074;-64
2021/10/01 00:45:11;;;;;;;4.35;2.90;;;7.20;99.90;;;;;;4324367;32;20086;-65
2021/10/01 00:47:38;;;;;;;4.00;2.58;;;7.10;99.90;;;;;;4336209;32;20076;-64
2021/10/01 00:50:05;;;;;;;4.22;2.87;;;7.20;99.90;;;;;;4324323;32;20157;-65
2021/10/01 00:52:31;;;;;;;4.22;2.80;;;7.10;99.90;;;;;;4324143;32;20526;-65
2021/10/01 00:54:59;;;;;;;5.47;2.58;;;7.10;99.90;;;;;;4336681;32;20167;-64
2021/10/01 00:57:25;;;;;;;4.22;2.80;;;7.00;99.90;;;;;;4336365;32;20498;-65
2021/10/01 00:59:51;;;;;;;3.87;2.67;;;7.10;99.90;;;;;;4348443;32;20086;-64
2021/10/01 01:02:17;;;;;;;3.80;2.72;;;7.10;99.90;;;;;;4349400;32;20089;-64
2021/10/01 01:04:44;;;;;;;4.40;2.95;;;7.00;99.90;;;;;;4351098;32;20082;-64
2021/10/01 01:07:27;;;;;;;5.10;2.92;;;7.00;99.90;;;;;;4331794;32;20166;-64
2021/10/01 01:10:03;;;;;;;5.03;2.90;;;7.00;99.90;;;;;;4339712;32;20526;-64
2021/10/01 01:12:59;;;;;;;4.18;3.10;;;7.10;99.90;;;;;;4336650;32;20075;-64
2021/10/01 01:15:31;;;;;;;4.85;2.85;;;7.10;99.90;;;;;;4348531;32;20144;-63
2021/10/01 01:18:04;;;;;;;6.22;2.90;;;7.00;99.90;;;;;;4324039;32;20116;-63
2021/10/01 01:20:49;;;;;;;5.57;3.00;;;7.10;99.90;;;;;;4336456;32;20172;-65
2021/10/01 01:23:53;;;;;;;4.43;2.85;;;7.10;99.90;;;;;;4324888;32;20175;-65
2021/10/01 01:26:57;;;;;;;5.05;2.95;;;7.10;99.90;;;;;;4347942;32;20527;-65
2021/10/01 01:30:20;;;;;;;4.57;3.10;;;7.00;99.90;;;;;;4350294;32;20059;-64
2021/10/01 01:32:48;;;;;;;4.45;2.60;;;7.00;99.90;;;;;;4325465;32;20226;-66
2021/10/01 01:35:24;;;;;;;4.62;2.85;;;7.00;99.90;;;;;;4335279;32;20101;-65
2021/10/01 01:38:30;;;;;;;6.78;3.10;;;7.00;99.90;;;;;;4323847;32;20073;-65
2021/10/01 01:40:59;;;;;;;5.32;3.10;;;7.00;99.90;;;;;;4338329;32;20094;-64
2021/10/01 01:43:26;;;;;;;4.03;2.65;;;6.90;99.90;;;;;;4323639;32;20445;-65
2021/10/01 01:45:52;;;;;;;4.55;2.95;;;6.90;99.90;;;;;;4323165;32;20077;-64
2021/10/01 01:48:19;;;;;;;4.80;3.10;;;6.80;99.90;;;;;;4323299;32;20086;-63
2021/10/01 01:50:45;;;;;;;4.62;2.75;;;6.90;99.90;;;;;;4323540;32;20167;-65
2021/10/01 01:53:13;;;;;;;4.45;2.97;;;6.90;99.90;;;;;;4347928;32;20074;-64
2021/10/01 01:55:39;;;;;;;4.50;2.90;;;7.00;99.90;;;;;;4335666;32;20168;-64
2021/10/01 01:58:06;;;;;;;4.55;2.90;;;7.00;99.90;;;;;;4335355;32;20089;-65
2021/10/01 02:00:33;;;;;;;3.53;2.67;;;6.90;99.90;;;;;;4323437;32;20529;-63
2021/10/01 02:02:59;;;;;;;4.05;3.08;;;6.90;99.90;;;;;;4323341;32;20082;-63
2021/10/01 02:05:25;;;;;;;5.22;2.87;;;6.90;99.90;;;;;;4335768;32;20169;-64
2021/10/01 02:07:55;;;;;;;5.03;3.10;;;6.90;99.90;;;;;;4311091;32;20551;-64
2021/10/01 02:10:21;;;;;;;5.78;3.30;;;6.80;99.90;;;;;;4323388;32;20091;-65
2021/10/01 02:12:52;;;;;;;5.45;3.33;;;6.80;99.90;;;;;;4310696;32;20082;-66
2021/10/01 02:15:18;;;;;;;6.07;3.10;;;6.90;99.90;;;;;;4335599;32;20082;-63
2021/10/01 02:17:45;;;;;;;5.85;3.10;;;6.90;99.90;;;;;;4312221;32;20078;-65
2021/10/01 02:20:11;;;;;;;6.68;3.12;;;7.00;99.90;;;;;;4335083;32;20150;-65
2021/10/01 02:22:38;;;;;;;6.53;3.60;;;7.00;99.90;;;;;;4347675;32;20088;-65
2021/10/01 02:25:05;;;;;;;6.28;3.25;;;7.00;99.90;;;;;;4323408;32;20081;-64
2021/10/01 02:27:46;;;;;;;6.37;3.58;;;6.90;99.90;;;;;;4335566;32;20505;-64
2021/10/01 02:30:17;;;;;;;4.97;2.97;;;6.90;99.90;;;;;;4336365;32;20074;-64
2021/10/01 02:33:02;;;;;;;4.07;3.20;;;7.00;99.90;;;;;;4335056;32;20450;-65
2021/10/01 02:35:29;;;;;;;4.72;2.95;;;7.00;99.90;;;;;;4335760;32;20519;-66
2021/10/01 02:37:55;;;;;;;5.80;3.10;;;6.90;99.90;;;;;;4335543;32;20104;-65
2021/10/01 02:40:21;;;;;;;5.18;3.35;;;6.90;99.90;;;;;;4310876;32;20178;-67
2021/10/01 02:42:47;;;;;;;4.95;2.95;;;6.90;99.90;;;;;;4347952;32;20082;-64
2021/10/01 02:45:15;;;;;;;6.68;3.28;;;7.00;99.90;;;;;;4347577;32;20066;-64
2021/10/01 02:47:41;;;;;;;4.40;2.87;;;6.90;99.90;;;;;;4323053;32;20093;-64
2021/10/01 02:50:18;;;;;;;8.35;3.50;;;6.90;99.90;;;;;;4335029;32;20079;-64
2021/10/01 02:53:01;;;;;;;5.70;3.40;;;6.90;99.90;;;;;;4313516;32;20082;-65
2021/10/01 02:55:42;;;;;;;4.72;3.08;;;6.90;99.90;;;;;;4339151;32;20058;-64
2021/10/01 02:58:33;;;;;;;7.47;3.92;;;6.90;99.90;;;;;;4336270;32;20597;-64
2021/10/01 03:01:00;;;;;;;5.20;3.37;;;6.80;99.90;;;;;;4364050;32;20079;-63
2021/10/01 03:03:32;;;;;;;8.63;4.03;;;6.80;99.90;;;;;;4325742;32;20079;-65
2021/10/01 03:06:00;;;;;;;5.95;3.90;;;6.80;99.90;;;;;;4338378;32;20085;-65
2021/10/01 03:08:28;;;;;;;7.37;3.80;;;6.80;99.90;;;;;;4337942;32;20138;-65
2021/10/01 03:10:55;;;;;;;6.50;3.60;;;6.80;99.90;;;;;;4337887;32;20082;-65
2021/10/01 03:13:22;;;;;;;5.95;3.65;;;6.90;99.90;;;;;;4338205;32;20078;-65
2021/10/01 03:15:50;;;;;;;7.87;3.87;;;6.80;99.90;;;;;;4337957;32;20074;-62
2021/10/01 03:18:17;;;;;;;6.55;3.53;;;6.80;99.90;;;;;;4337856;32;20509;-64
2021/10/01 03:20:43;;;;;;;6.32;3.60;;;6.80;99.90;;;;;;4325919;32;20167;-65
2021/10/01 03:23:10;;;;;;;6.53;3.70;;;6.90;99.90;;;;;;4337899;32;20089;-65
2021/10/01 03:25:38;;;;;;;8.27;3.45;;;6.80;99.90;;;;;;4337798;32;20153;-64
2021/10/01 03:28:06;;;;;;;7.60;4.10;;;6.80;99.90;;;;;;4349894;32;20074;-64
2021/10/01 03:30:32;;;;;;;7.12;3.50;;;6.90;99.90;;;;;;4350149;32;20082;-65
2021/10/01 03:32:58;;;;;;;5.90;4.18;;;6.90;99.90;;;;;;4313522;32;20141;-63
2021/10/01 03:35:25;;;;;;;9.82;3.87;;;6.80;99.90;;;;;;4313261;32;20086;-64
2021/10/01 03:37:53;;;;;;;7.30;3.83;;;6.90;99.90;;;;;;4337938;32;20070;-65
2021/10/01 03:40:20;;;;;;;7.72;4.68;;;6.90;99.90;;;;;;4350269;32;20558;-65
2021/10/01 03:42:46;;;;;;;5.72;3.92;;;6.80;99.90;;;;;;4325639;32;20454;-65
2021/10/01 03:45:13;;;;;;;7.28;4.10;;;6.90;99.90;;;;;;4349743;32;20055;-64
2021/10/01 03:47:39;;;;;;;9.18;4.12;;;6.90;99.90;;;;;;4313304;32;20069;-63
2021/10/01 03:50:07;;;;;;;6.95;3.92;;;6.90;99.90;;;;;;4325464;32;20077;-62
2021/10/01 03:52:33;;;;;;;10.68;4.40;;;7.00;99.90;;;;;;4346480;32;20083;-65
2021/10/01 03:55:00;;;;;;;6.60;4.28;;;7.00;99.90;;;;;;4379900;32;20084;-64
2021/10/01 03:57:26;;;;;;;8.63;3.90;;;7.00;99.90;;;;;;4340510;32;20078;-64
2021/10/01 03:59:52;;;;;;;9.73;4.68;;;7.00;99.90;;;;;;4351296;32;20066;-65
2021/10/01 04:02:18;;;;;;;8.20;4.07;;;7.10;99.90;;;;;;4352558;32;20074;-65
2021/10/01 04:04:45;;;;;;;10.10;4.50;;;7.10;99.90;;;;;;4337169;32;20093;-65
2021/10/01 04:07:11;;;;;;;8.32;4.37;;;7.10;99.90;;;;;;4349281;32;20093;-64
2021/10/01 04:09:37;;;;;;;13.73;4.97;;;7.20;99.90;;;;;;4363251;32;20522;-65
2021/10/01 04:12:04;;;;;;;10.05;5.07;;;7.20;99.90;;;;;;4349162;32;20082;-63
2021/10/01 04:14:32;;;;;;;8.90;4.55;;;7.30;99.90;;;;;;4336990;32;20066;-65
2021/10/01 04:16:58;;;;;;;9.90;4.90;;;7.30;99.90;;;;;;4336853;32;20157;-66
2021/10/01 04:19:24;;;;;;;7.25;4.03;;;7.40;99.90;;;;;;4336583;32;20078;-65
2021/10/01 04:21:50;;;;;;;6.55;3.45;;;7.50;99.90;;;;;;4363485;32;20488;-66
2021/10/01 04:24:17;;;;;;;8.57;3.80;;;7.60;99.90;;;;;;4336868;32;20092;-64
2021/10/01 04:26:43;;;;;;;6.35;4.40;;;7.70;99.90;;;;;;4337341;32;20082;-64
2021/10/01 04:29:09;;;;;;;7.85;4.10;;;7.70;99.90;;;;;;4337094;32;20090;-64
2021/10/01 04:31:36;;;;;;;8.20;3.92;;;7.80;99.90;;;;;;4349077;32;20626;-65
2021/10/01 04:34:04;;;;;;;9.98;4.45;;;8.00;99.90;;;;;;4349161;32;20087;-65
2021/10/01 04:36:32;;;;;;;7.18;4.47;;;8.00;99.90;;;;;;4348908;32;20141;-63
2021/10/01 04:38:59;;;;;;;8.68;3.67;;;8.20;99.90;;;;;;4324843;32;20158;-64
2021/10/01 04:41:25;;;;;;;7.28;3.58;;;8.20;99.90;;;;;;4336923;32;20506;-64
2021/10/01 04:43:52;;;;;;;6.55;3.30;;;8.30;99.90;;;;;;4337335;32;20117;-64
2021/10/01 04:46:18;;;;;;;5.40;3.37;;;8.40;99.90;;;;;;4311919;32;20078;-65
2021/10/01 04:48:44;;;;;;;10.20;3.75;;;8.40;99.90;;;;;;4324283;32;20535;-65
2021/10/01 04:51:11;;;;;;;7.07;3.70;;;8.60;99.90;;;;;;4336729;32;20085;-65
2021/10/01 04:53:40;;;;;;;9.52;4.28;;;8.70;99.90;;;;;;4349225;32;20527;-64
2021/10/01 04:56:06;;;;;;;5.62;3.65;;;8.80;99.90;;;;;;4348695;32;20101;-65
2021/10/01 04:58:32;;;;;;;6.68;3.33;;;9.00;99.90;;;;;;4336663;32;20170;-65
2021/10/01 05:01:02;;;;;;;7.62;3.65;;;9.10;99.90;;;;;;4348743;32;20074;-64
2021/10/01 05:03:29;;;;;;;5.43;3.35;;;9.30;99.90;;;;;;4336532;32;20066;-64
2021/10/01 05:05:56;;;;;;;6.28;3.65;;;9.60;99.90;;;;;;4336508;32;20074;-64
2021/10/01 05:08:22;;;;;;;4.22;2.83;;;9.20;99.90;;;;;;4324566;32;20090;-65
2021/10/01 05:10:48;;;;;;;5.53;2.97;;;9.20;99.90;;;;;;4311952;32;20078;-65
2021/10/01 05:13:15;;;;;;;4.50;3.20;;;9.60;99.90;;;;;;4323829;32;20097;-63
2021/10/01 05:15:43;;;;;;;7.70;3.72;;;9.60;99.90;;;;;;4323523;32;20157;-65
2021/10/01 05:18:14;;;;;;;4.95;3.30;;;9.70;99.90;;;;;;4348311;32;20098;-65
2021/10/01 05:20:40;;;;;;;4.78;3.10;;;9.80;99.90;;;;;;4336846;32;20079;-64
2021/10/01 05:23:07;;;;;;;6.80;3.40;;;9.80;99.90;;;;;;4311683;32;20112;-65
2021/10/01 05:25:33;;;;;;;4.22;2.67;;;10.10;99.90;;;;;;4336540;32;20153;-65
2021/10/01 05:27:59;;;;;;;6.47;3.22;;;10.60;99.90;;;;;;4323651;32;20167;-65
2021/10/01 05:30:26;;;;;;;4.82;3.20;;;10.60;99.90;;;;;;4323402;32;20624;-64
2021/10/01 05:32:52;;;;;;;7.22;3.35;;;10.50;99.90;;;;;;4335386;32;20485;-64
2021/10/01 05:35:19;;;;;;;7.10;3.20;;;10.80;99.90;;;;;;4311702;32;20066;-65
2021/10/01 05:37:46;;;;;;;5.93;3.30;;;10.90;99.90;;;;;;4347874;32;20535;-64
2021/10/01 05:40:12;;;;;;;6.40;3.58;;;11.70;99.90;;;;;;4348196;32;20082;-65
2021/10/01 05:42:39;;;;;;;5.82;3.60;;;12.50;99.90;;;;;;4323613;32;20090;-64
2021/10/01 05:45:07;;;;;;;4.03;2.72;;;11.80;99.90;;;;;;4349832;32;20085;-65
2021/10/01 05:47:34;;;;;;;5.35;2.75;;;11.60;99.90;;;;;;4336160;32;20507;-65
2021/10/01 05:50:04;;;;;;;4.60;2.72;;;12.10;99.90;;;;;;4324057;32;20457;-65
2021/10/01 05:54:59;;;;;;;5.00;3.42;;;12.10;99.90;;;;;;4348211;32;20101;-65
2021/10/01 05:57:26;;;;;;;5.65;3.40;;;11.10;99.90;;;;;;4311218;32;20070;-65
2021/10/01 05:59:53;;;;;;;5.20;3.30;;;11.70;99.90;;;;;;4323011;32;20516;-65
2021/10/01 06:02:21;;;;;;;6.90;3.53;;;10.90;99.90;;;;;;4362037;32;20067;-66
2021/10/01 06:04:52;;;;;;;4.75;3.10;;;10.70;99.90;;;;;;4335964;32;20080;-64
2021/10/01 06:07:19;;;;;;;5.10;2.97;;;10.60;99.90;;;;;;4324295;32;20179;-64
2021/10/01 06:09:45;;;;;;;5.57;2.80;;;10.70;99.90;;;;;;4323525;32;20077;-64
2021/10/01 06:12:13;;;;;;;4.37;3.20;;;11.10;99.90;;;;;;4322769;32;20505;-65
2021/10/01 06:14:39;;;;;;;4.85;3.10;;;11.10;99.90;;;;;;4345317;32;20493;-65
2021/10/01 06:17:06;;;;;;;5.57;2.83;;;11.70;99.90;;;;;;4337123;32;20078;-64
2021/10/01 06:19:33;;;;;;;3.80;2.67;;;11.20;99.90;;;;;;4337577;32;20166;-65
2021/10/01 06:22:01;;;;;;;5.60;3.33;;;11.30;99.90;;;;;;4333005;32;20073;-68
2021/10/01 06:24:27;;;;;;;8.45;3.58;;;11.50;99.90;;;;;;4321907;32;20078;-64
2021/10/01 06:26:54;;;;;;;4.75;3.08;;;11.20;99.90;;;;;;4369770;32;20152;-65
2021/10/01 06:29:20;;;;;;;4.93;2.70;;;11.50;99.90;;;;;;4363998;32;20531;-67
2021/10/01 06:31:46;;;;;;;4.85;2.92;;;12.00;99.90;;;;;;4337308;32;20080;-66
2021/10/01 06:34:13;;;;;;;4.55;2.87;;;11.80;99.90;;;;;;4355583;32;20062;-63
2021/10/01 06:36:40;;;;;;;5.25;3.10;;;11.50;99.90;;;;;;4352730;32;20094;-64
2021/10/01 06:39:06;;;;;;;6.68;3.17;;;11.30;99.90;;;;;;4353817;32;20071;-62
2021/10/01 06:41:33;;;;;;;4.12;2.72;;;11.80;99.90;;;;;;4344095;32;20125;-62
2021/10/01 06:44:03;;;;;;;5.28;3.22;;;12.00;99.90;;;;;;4362344;32;20078;-67
2021/10/01 06:49:21;;;;;;;6.43;3.10;;;11.80;99.90;;;;;;4347660;32;20085;-62
2021/10/01 07:22:20;;;;;;;4.05;2.47;;;10.60;99.90;;;;;;4339613;32;20078;-62
2021/10/01 08:19:41;;;;;;;5.75;3.10;;;11.60;99.90;;;;;;4336005;32;20070;-63
2021/10/01 08:22:09;;;;;;;5.20;2.65;;;11.70;99.90;;;;;;4331826;32;20086;-65
2021/10/01 08:24:35;;;;;;;4.18;2.58;;;11.70;99.90;;;;;;4360601;32;20077;-64
2021/10/01 08:27:03;;;;;;;5.75;2.72;;;11.60;99.90;;;;;;4358522;32;20209;-65
2021/10/01 08:29:29;;;;;;;4.55;2.70;;;12.00;99.90;;;;;;4349099;32;20183;-65
2021/10/01 08:32:02;;;;;;;5.87;2.72;;;11.60;99.90;;;;;;4355230;32;20061;-66
2021/10/01 08:34:29;;;;;;;5.40;3.00;;;11.80;99.90;;;;;;4347819;32;20066;-65
2021/10/01 08:36:57;;;;;;;5.05;2.90;;;12.10;99.90;;;;;;4359037;32;20190;-66
2021/10/01 08:39:23;;;;;;;4.70;3.03;;;11.90;99.90;;;;;;4344526;32;20059;-64
2021/10/01 08:41:49;;;;;;;4.75;2.80;;;12.10;99.90;;;;;;4363077;32;20106;-64
2021/10/01 08:44:16;;;;;;;8.25;3.00;;;12.70;99.90;;;;;;4372957;32;21432;-64
2021/10/01 08:46:47;;;;;;;5.37;3.03;;;13.30;99.90;;;;;;4340655;32;20185;-66
2021/10/01 08:49:14;;;;;;;6.07;2.95;;;12.70;99.90;;;;;;4357880;32;20063;-68
2021/10/01 08:51:41;;;;;;;4.32;2.70;;;12.50;99.90;;;;;;4346977;32;20494;-65
2021/10/01 08:54:07;;;;;;;7.40;2.78;;;12.30;99.90;;;;;;4358060;32;20074;-64
2021/10/01 08:56:34;;;;;;;5.62;2.95;;;12.60;99.90;;;;;;4335573;32;20100;-65
2021/10/01 08:59:00;;;;;;;5.87;2.95;;;12.80;99.90;;;;;;4344815;32;20559;-69
2021/10/01 09:01:27;;;;;;;5.35;2.97;;;12.50;99.90;;;;;;4343923;32;20070;-65
2021/10/01 09:03:53;;;;;;;8.82;3.03;;;12.40;99.90;;;;;;4346391;32;20179;-64
2021/10/01 09:06:20;;;;;;;5.85;2.65;;;12.60;99.90;;;;;;4359548;32;20508;-65
2021/10/01 09:08:52;;;;;;;5.35;3.28;;;12.50;99.90;;;;;;4361275;32;20093;-63
2021/10/01 09:11:25;;;;;;;5.82;2.95;;;12.40;99.90;;;;;;4350799;32;20081;-71
2021/10/01 09:13:51;;;;;;;7.97;3.40;;;12.20;99.90;;;;;;4358715;32;20463;-66
2021/10/01 09:16:18;;;;;;;4.47;2.70;;;12.80;99.90;;;;;;4325858;32;20062;-66
2021/10/01 09:18:44;;;;;;;4.80;3.20;;;13.60;99.90;;;;;;4359253;32;20081;-65
2021/10/01 09:21:19;;;;;;;6.03;3.08;;;13.80;99.90;;;;;;4351720;32;20145;-64
2021/10/01 09:24:09;;;;;;;6.40;3.30;;;13.70;99.90;;;;;;4326248;32;20074;-65
2021/10/01 09:26:35;;;;;;;5.62;3.53;;;13.30;99.90;;;;;;4332758;32;20151;-65
2021/10/01 09:29:08;;;;;;;5.75;3.33;;;13.30;99.90;;;;;;4341372;32;20157;-64
2021/10/01 09:31:47;;;;;;;5.55;3.22;;;14.10;99.90;;;;;;4345857;32;20070;-65
2021/10/01 09:34:23;;;;;;;5.55;3.03;;;14.50;99.90;;;;;;4366150;32;20049;-66
2021/10/01 09:37:26;;;;;;;5.32;2.50;;;13.70;99.90;;;;;;4352973;32;20081;-66
2021/10/01 09:39:57;;;;;;;4.62;3.30;;;13.30;99.90;;;;;;4339273;32;20492;-64
2021/10/01 09:42:26;;;;;;;8.55;3.72;;;13.40;99.90;;;;;;4337288;32;20511;-65
2021/10/01 09:45:01;;;;;;;5.65;3.12;;;14.30;99.90;;;;;;4345226;32;20066;-64
2021/10/01 09:47:33;;;;;;;4.75;3.03;;;14.10;99.90;;;;;;4340455;32;20078;-64
2021/10/01 09:50:08;;;;;;;6.55;2.87;;;13.60;99.90;;;;;;4353607;32;20088;-65
2021/10/01 09:52:51;;;;;;;7.15;3.58;;;13.90;99.90;;;;;;4358022;32;20093;-63
2021/10/01 09:55:20;;;;;;;7.65;3.33;;;13.70;99.90;;;;;;4347716;32;20089;-69
2021/10/01 09:58:08;;;;;;;8.05;4.20;;;14.10;99.90;;;;;;4338881;32;20074;-66
2021/10/01 10:00:53;;;;;;;8.82;4.30;;;14.00;99.90;;;;;;4358094;32;20066;-68
2021/10/01 10:03:26;;;;;;;6.37;3.37;;;14.70;99.90;;;;;;4346845;32;20092;-64
2021/10/01 10:06:10;;;;;;;5.65;3.08;;;14.80;99.90;;;;;;4351849;32;20145;-63
2021/10/01 10:08:38;;;;;;;7.75;3.72;;;15.20;99.90;;;;;;4340527;32;20066;-71
2021/10/01 10:11:20;;;;;;;6.15;3.72;;;14.80;99.90;;;;;;4343169;32;20062;-65
2021/10/01 10:13:53;;;;;;;6.53;3.28;;;15.00;99.90;;;;;;4348968;32;20073;-67
2021/10/01 10:16:28;;;;;;;4.25;3.20;;;14.60;99.90;;;;;;4350442;32;20499;-68
2021/10/01 10:19:07;;;;;;;4.47;3.08;;;13.90;99.90;;;;;;4342042;32;20074;-70
2021/10/01 10:21:33;;;;;;;5.87;3.00;;;13.80;99.90;;;;;;4321718;32;20074;-70
2021/10/01 10:24:00;;;;;;;6.12;3.53;;;13.40;99.90;;;;;;4347472;32;20077;-71
2021/10/01 10:26:27;;;;;;;5.60;2.97;;;13.50;99.90;;;;;;4347208;32;20113;-69
2021/10/01 10:28:56;;;;;;;4.20;2.72;;;13.80;99.90;;;;;;4318829;32;20111;-69
2021/10/01 10:31:26;;;;;;;6.62;3.53;;;13.50;99.90;;;;;;4319206;32;20074;-68
2021/10/01 10:33:56;;;;;;;4.72;2.85;;;13.60;99.90;;;;;;4355822;32;20082;-64
2021/10/01 10:36:44;;;;;;;4.97;3.10;;;13.40;99.90;;;;;;4335340;32;20074;-74
2021/10/01 10:39:10;;;;;;;4.05;2.85;;;13.40;99.90;;;;;;4344248;32;20505;-74
2021/10/01 10:41:41;;;;;;;5.82;2.97;;;13.60;99.90;;;;;;4370651;32;20070;-67
2021/10/01 10:44:10;;;;;;;6.25;2.80;;;13.20;99.90;;;;;;4355127;32;20136;-66
2021/10/01 10:46:36;;;;;;;6.28;3.30;;;13.20;99.90;;;;;;4319471;32;20157;-65
2021/10/01 10:49:32;;;;;;;5.93;3.08;;;13.20;99.90;;;;;;4347784;32;20093;-65
2021/10/01 10:52:04;;;;;;;4.40;3.05;;;13.20;99.90;;;;;;4316115;32;20121;-67
2021/10/01 10:54:34;;;;;;;4.43;3.00;;;13.60;99.90;;;;;;4329754;32;20167;-66
2021/10/01 10:57:22;;;;;;;4.75;3.03;;;14.10;99.90;;;;;;4321517;32;20070;-70
2021/10/01 10:59:50;;;;;;;5.00;2.83;;;14.30;99.90;;;;;;4359359;32;21126;-71
2021/10/01 11:02:33;;;;;;;6.32;3.00;;;13.80;99.90;;;;;;4343209;32;20077;-65
2021/10/01 11:05:27;;;;;;;7.30;3.55;;;13.90;99.90;;;;;;4344251;32;20070;-64
2021/10/01 11:08:01;;;;;;;4.97;3.00;;;13.80;99.90;;;;;;4355061;32;20080;-64
2021/10/01 11:10:45;;;;;;;6.18;3.28;;;13.50;99.90;;;;;;4355895;32;20073;-64
2021/10/01 11:13:21;;;;;;;6.25;3.10;;;13.90;99.90;;;;;;4358814;32;20559;-64
2021/10/01 11:16:12;;;;;;;4.78;2.90;;;13.60;99.90;;;;;;4345827;32;20528;-64
2021/10/01 11:18:45;;;;;;;7.03;3.17;;;13.40;99.90;;;;;;4366923;32;20185;-66
2021/10/01 11:21:29;;;;;;;5.20;2.80;;;13.30;99.90;;;;;;4358966;32;20151;-67
2021/10/01 11:24:16;;;;;;;6.97;2.87;;;13.20;99.90;;;;;;4352255;32;20070;-64
2021/10/01 11:26:51;;;;;;;5.90;3.25;;;13.30;99.90;;;;;;4351416;32;20078;-66
2021/10/01 11:29:28;;;;;;;5.33;3.00;;;13.60;99.90;;;;;;4346042;32;20136;-65
2021/10/01 11:32:02;;;;;;;5.60;2.58;;;13.50;99.90;;;;;;4352891;32;20074;-65
2021/10/01 11:34:46;;;;;;;4.65;2.60;;;13.30;99.90;;;;;;4364424;32;20097;-65
2021/10/01 11:37:30;;;;;;;5.20;2.83;;;13.30;99.90;;;;;;4364668;32;20179;-64
2021/10/01 11:42:43;;;;;;;6.55;3.87;;;13.30;99.90;;;;;;3856135;37;20233;-65
2021/10/01 11:45:18;;;;;;;6.15;3.08;;;13.20;99.90;;;;;;4393435;32;20068;-65
2021/10/01 11:47:56;;;;;;;4.90;2.83;;;13.10;99.90;;;;;;4392680;32;20100;-65
2021/10/01 11:50:40;;;;;;;4.65;2.78;;;13.00;99.90;;;;;;4393045;32;20100;-64
2021/10/01 11:53:27;;;;;;;4.95;2.92;;;12.80;99.90;;;;;;4403345;32;20154;-64
2021/10/01 11:55:55;;;;;;;7.53;3.03;;;13.30;99.90;;;;;;4378617;32;20112;-65
2021/10/01 11:58:23;;;;;;;6.78;2.90;;;13.10;99.90;;;;;;4395170;32;20069;-65
2021/10/01 12:00:50;;;;;;;5.87;3.25;;;13.00;99.90;;;;;;4383199;32;20583;-64
2021/10/01 12:03:17;;;;;;;4.75;2.83;;;13.10;99.90;;;;;;4395179;32;20088;-64
2021/10/01 12:05:52;;;;;;;5.75;2.55;;;13.10;99.90;;;;;;4378273;32;20164;-65
2021/10/01 12:08:21;;;;;;;5.18;2.55;;;12.60;99.90;;;;;;4385369;32;20069;-72
2021/10/01 12:10:51;;;;;;;5.15;3.10;;;12.80;99.90;;;;;;4381831;32;20092;-67
2021/10/01 12:13:23;;;;;;;5.22;3.03;;;12.90;99.90;;;;;;4385064;32;20155;-66
2021/10/01 12:16:01;;;;;;;6.80;3.05;;;12.90;99.90;;;;;;4403819;32;20175;-66
2021/10/01 12:18:34;;;;;;;6.50;3.08;;;12.80;99.90;;;;;;4393626;32;20448;-65
2021/10/01 12:21:04;;;;;;;7.72;3.00;;;12.80;99.90;;;;;;4406555;32;20076;-64
2021/10/01 12:23:47;;;;;;;6.75;3.33;;;12.60;99.90;;;;;;4401241;32;20081;-65
2021/10/01 12:26:43;;;;;;;10.10;3.60;;;12.60;99.90;;;;;;4401327;32;20081;-68
2021/10/01 12:29:24;;;;;;;7.13;3.73;;;12.60;99.90;;;;;;4405713;32;20065;-67
2021/10/01 12:32:01;;;;;;;7.57;3.00;;;12.20;99.90;;;;;;4373307;32;20081;-64
2021/10/01 12:34:32;;;;;;;6.37;3.50;;;12.30;99.90;;;;;;4377259;32;20148;-67
2021/10/01 12:37:07;;;;;;;5.40;3.15;;;12.60;99.90;;;;;;4371964;32;20456;-65
2021/10/01 12:39:35;;;;;;;7.78;3.53;;;12.50;99.90;;;;;;4396022;32;20604;-67
2021/10/01 12:42:14;;;;;;;8.07;3.42;;;12.50;99.90;;;;;;3860659;37;20078;-66
2021/10/01 12:44:42;;;;;;;5.65;3.22;;;12.40;99.90;;;;;;4405593;32;20524;-67
2021/10/01 12:47:19;;;;;;;4.90;3.20;;;12.30;99.90;;;;;;4391010;32;20588;-66
2021/10/01 12:50:10;;;;;;;7.95;3.30;;;12.30;99.90;;;;;;4374995;32;20120;-66
2021/10/01 12:52:44;;;;;;;13.25;5.00;;;12.40;99.90;;;;;;4386688;32;21420;-65
2021/10/01 12:55:15;;;;;;;7.78;3.90;;;12.20;99.90;;;;;;4404300;32;20205;-64
2021/10/01 12:57:51;;;;;;;7.55;3.22;;;12.50;99.90;;;;;;4394863;32;20084;-63
2021/10/01 13:00:21;;;;;;;6.62;3.53;;;12.10;99.90;;;;;;4401279;32;20547;-64
2021/10/01 13:02:50;;;;;;;9.95;3.50;;;11.90;99.90;;;;;;4389432;32;20177;-68
2021/10/01 13:05:24;;;;;;;8.20;3.87;;;12.10;99.90;;;;;;4387100;32;20137;-63
2021/10/01 13:08:17;;;;;;;7.10;3.80;;;12.00;99.90;;;;;;4394903;32;20112;-67
2021/10/01 13:10:57;;;;;;;7.25;3.70;;;11.80;99.90;;;;;;4376052;32;20451;-65
2021/10/01 13:13:28;;;;;;;7.60;3.45;;;11.90;99.90;;;;;;4391608;32;20085;-63
2021/10/01 13:15:55;;;;;;;6.07;3.47;;;11.90;99.90;;;;;;4383421;32;20089;-63
2021/10/01 13:18:37;;;;;;;9.82;4.10;;;11.70;99.90;;;;;;4390619;32;20140;-65
2021/10/01 13:21:13;;;;;;;8.98;4.50;;;11.80;99.90;;;;;;4407588;32;20085;-63
2021/10/01 13:24:09;;;;;;;6.80;3.62;;;11.90;99.90;;;;;;4396237;32;20093;-66
2021/10/01 13:26:42;;;;;;;9.13;3.65;;;11.90;99.90;;;;;;4388859;32;20077;-64
2021/10/01 13:29:11;;;;;;;6.95;3.47;;;11.80;99.90;;;;;;4386492;32;20066;-63
2021/10/01 13:31:45;;;;;;;9.43;4.28;;;11.80;99.90;;;;;;4370693;32;20101;-63
2021/10/01 13:34:12;;;;;;;4.85;3.00;;;11.80;99.90;;;;;;4366543;32;20060;-66
2021/10/01 13:36:39;;;;;;;6.35;3.67;;;11.80;99.90;;;;;;4371924;32;20781;-65
2021/10/01 13:39:06;;;;;;;7.47;3.70;;;11.80;99.90;;;;;;4371189;32;20138;-64
2021/10/01 13:41:33;;;;;;;6.20;3.25;;;11.70;99.90;;;;;;4356753;32;20065;-65
2021/10/01 13:43:59;;;;;;;8.85;4.30;;;11.70;99.90;;;;;;4379597;32;20120;-63
2021/10/01 13:46:26;;;;;;;7.43;3.47;;;11.70;99.90;;;;;;4394235;32;20072;-63
2021/10/01 13:48:52;;;;;;;5.15;3.42;;;11.80;99.90;;;;;;4382413;32;20149;-66
2021/10/01 13:51:18;;;;;;;5.65;3.65;;;11.70;99.90;;;;;;4378127;32;20158;-66
2021/10/01 13:53:46;;;;;;;7.15;3.55;;;11.70;99.90;;;;;;4361876;32;20073;-66
2021/10/01 13:56:12;;;;;;;6.15;3.10;;;11.80;99.90;;;;;;4361092;32;20147;-64
2021/10/01 13:58:38;;;;;;;5.43;3.15;;;11.70;99.90;;;;;;4383066;32;20097;-66
2021/10/01 14:01:04;;;;;;;5.12;2.92;;;11.60;99.90;;;;;;4383551;32;20116;-74
2021/10/01 14:03:31;;;;;;;6.90;3.12;;;11.70;99.90;;;;;;4372282;32;20625;-63
2021/10/01 14:05:57;;;;;;;5.28;2.75;;;11.70;99.90;;;;;;4372868;32;20079;-65
2021/10/01 14:08:24;;;;;;;6.62;2.92;;;11.50;99.90;;;;;;4379974;32;20094;-64
2021/10/01 14:10:51;;;;;;;8.98;3.08;;;11.60;99.90;;;;;;4358445;32;20500;-63
2021/10/01 14:13:17;;;;;;;5.15;2.53;;;11.60;99.90;;;;;;4361175;32;20092;-61
2021/10/01 14:15:46;;;;;;;4.95;2.90;;;11.60;99.90;;;;;;4370601;32;20089;-63
2021/10/01 14:18:13;;;;;;;6.68;3.40;;;11.50;99.90;;;;;;4381616;32;20504;-62
2021/10/01 14:20:39;;;;;;;4.05;2.97;;;11.60;99.90;;;;;;4373969;32;20078;-63
2021/10/01 14:23:06;;;;;;;5.05;3.10;;;11.60;99.90;;;;;;4384258;32;20096;-64
2021/10/01 14:25:33;;;;;;;5.75;3.40;;;11.60;99.90;;;;;;4360458;32;20117;-64
2021/10/01 14:27:59;;;;;;;6.55;3.42;;;11.60;99.90;;;;;;4385094;32;20529;-62
2021/10/01 14:30:30;;;;;;;6.05;3.90;;;11.60;99.90;;;;;;4370804;32;20455;-62
2021/10/01 14:32:59;;;;;;;7.82;3.70;;;11.50;99.90;;;;;;4364268;32;20101;-64
2021/10/01 14:35:25;;;;;;;5.80;3.90;;;11.50;99.90;;;;;;4358008;32;20066;-64
2021/10/01 14:37:52;;;;;;;5.75;3.58;;;11.50;99.90;;;;;;4346853;32;20255;-64
2021/10/01 14:40:18;;;;;;;7.87;4.28;;;11.50;99.90;;;;;;4369081;32;20082;-68
2021/10/01 14:42:45;;;;;;;7.40;4.78;;;11.60;99.90;;;;;;4381877;32;20066;-63